Aerbrava English version Versión de Aerbrava en Español Versió en Català d'Aerbrava
curve curve
Monday, 14 de October de 2019
11:26 UTC
Sunrise: 06:03
Sunset: 17:07

AERONAUTICAL WEATHER

WEATHER INFORMATION

This section shows the meteorological information that is used in the practice of students in the pilot school at our center during training, so it may not be current and should be used at your own risk. AERBRAVA is not responsible for its use.

ACTUAL WEATHER

Servei Meteorològic de Catalunya sat24.com
LEGE 141100Z 09001KT 9999 BKN030 23/18 Q1015
LEGE 141030Z 03003KT 9999 BKN030 23/18 Q1015
LEGE 141000Z 04003KT 340V100 9999 BKN030 22/18 Q1016
LEGE 140930Z 03004KT 320V080 9999 BKN020 22/18 Q1016
LEGE 140900Z 03005KT 9999 BKN015 21/18 Q1016
LEGE 140830Z VRB02KT 9999 OVC015 21/18 Q1016
LEGE 140800Z 36004KT 9999 OVC012 20/18 Q1016
LEGE 140730Z 02003KT 340V040 9999 OVC012 19/17 Q1016
TAF LEGE 141100Z 1412/1512 VRB03KT 9999 BKN020 TX28/1413Z TN13/1506Z   BECMG 1412/1413 17009KT   PROB40   TEMPO 1418/1422 4000 TSRA SCT030CB BKN035   BECMG 1421/1423 VRB03KT
National Weather service
logo About us | Site map | Privacy | Contact | © 2019 AERBRAVA, SCP